Time;durP1;ratioP1;P1;durP2;ratioP2;P2;SDS_P1;SDS_P2;PMS_P1;PMS_P2;Temp;Humidity;BMP_temperature;BMP_pressure;BME280_temperature;BME280_humidity;BME280_pressure;Samples;Min_cycle;Max_cycle;Signal;HPM_P1;HPM_P2
2023/12/01 00:00:05;;;;;;;8.40;6.03;;;;;;;;;;5055715;28;20410;-72
2023/12/01 00:02:31;;;;;;;8.57;6.30;;;;;;;;;;5055325;28;20418;-72
2023/12/01 00:04:57;;;;;;;6.63;6.13;;;;;;;;;;5055920;28;20403;-72
2023/12/01 00:07:23;;;;;;;7.40;6.70;;;;;;;;;;5055281;28;20402;-72
2023/12/01 00:09:49;;;;;;;5.63;5.23;;;;;;;;;;5055599;28;20415;-72
2023/12/01 00:12:15;;;;;;;7.47;5.50;;;;;;;;;;5055845;28;20410;-72
2023/12/01 00:14:41;;;;;;;5.80;5.37;;;;;;;;;;5055341;28;20874;-72
2023/12/01 00:17:08;;;;;;;7.70;5.97;;;;;;;;;;5055550;28;20896;-72
2023/12/01 00:22:44;;;;;;;5.10;4.80;;;;;;;;;;5054889;28;20918;-72
2023/12/01 00:25:10;;;;;;;5.40;5.10;;;;;;;;;;5055027;28;20418;-72
2023/12/01 00:27:36;;;;;;;6.03;5.60;;;;;;;;;;5055205;28;20413;-72
2023/12/01 00:30:03;;;;;;;6.93;5.90;;;;;;;;;;5055157;28;20468;-72
2023/12/01 00:32:29;;;;;;;9.47;5.27;;;;;;;;;;5055367;28;20464;-72
2023/12/01 00:34:55;;;;;;;5.67;5.07;;;;;;;;;;5054931;28;20423;-72
2023/12/01 00:37:21;;;;;;;6.27;5.87;;;;;;;;;;5055127;28;20565;-72
2023/12/01 00:39:47;;;;;;;5.60;5.20;;;;;;;;;;5054961;28;20410;-72
2023/12/01 00:42:13;;;;;;;7.20;6.50;;;;;;;;;;5054068;28;20501;-72
2023/12/01 00:44:39;;;;;;;5.87;5.40;;;;;;;;;;5055068;28;20403;-72
2023/12/01 00:47:05;;;;;;;5.27;4.87;;;;;;;;;;5054577;28;20497;-72
2023/12/01 00:49:31;;;;;;;5.50;5.07;;;;;;;;;;5053257;28;20476;-72
2023/12/01 00:51:57;;;;;;;5.60;5.30;;;;;;;;;;5054694;28;20419;-72
2023/12/01 00:54:23;;;;;;;5.87;5.57;;;;;;;;;;5054693;28;20906;-72
2023/12/01 00:56:49;;;;;;;6.03;5.47;;;;;;;;;;5054653;28;20470;-72
2023/12/01 00:59:15;;;;;;;6.80;6.27;;;;;;;;;;5054299;28;20465;-72
2023/12/01 01:01:41;;;;;;;5.83;5.43;;;;;;;;;;5054204;28;20430;-73
2023/12/01 01:04:10;;;;;;;5.60;5.20;;;;;;;;;;5053943;28;20473;-72
2023/12/01 01:06:36;;;;;;;5.97;5.57;;;;;;;;;;5052930;28;20533;-72
2023/12/01 01:09:02;;;;;;;6.37;5.77;;;;;;;;;;5054388;28;20433;-72
2023/12/01 01:11:28;;;;;;;5.50;5.00;;;;;;;;;;5054068;28;20468;-72
2023/12/01 01:13:54;;;;;;;5.60;5.30;;;;;;;;;;5054146;28;20426;-72
2023/12/01 01:16:22;;;;;;;5.23;5.03;;;;;;;;;;5053949;28;20865;-72
2023/12/01 01:18:47;;;;;;;8.60;5.93;;;;;;;;;;5054250;28;20852;-72
2023/12/01 01:21:13;;;;;;;5.37;5.07;;;;;;;;;;5054029;28;20933;-72
2023/12/01 01:23:40;;;;;;;5.50;5.30;;;;;;;;;;5053762;28;20480;-72
2023/12/01 01:26:07;;;;;;;5.83;5.33;;;;;;;;;;5053920;28;20410;-73
2023/12/01 01:28:33;;;;;;;5.47;5.00;;;;;;;;;;5053689;28;20776;-72
2023/12/01 01:30:59;;;;;;;5.90;5.53;;;;;;;;;;5053848;28;20414;-72
2023/12/01 01:33:25;;;;;;;7.17;6.37;;;;;;;;;;5053586;28;20426;-71
2023/12/01 01:35:51;;;;;;;6.53;4.93;;;;;;;;;;5054175;28;20414;-72
2023/12/01 01:38:17;;;;;;;5.27;4.97;;;;;;;;;;5053626;28;20474;-72
2023/12/01 01:40:43;;;;;;;5.57;5.23;;;;;;;;;;5053585;28;20407;-72
2023/12/01 01:43:08;;;;;;;6.47;4.53;;;;;;;;;;5053343;28;20785;-71
2023/12/01 01:45:34;;;;;;;4.87;4.67;;;;;;;;;;5053701;28;20814;-72
2023/12/01 01:48:00;;;;;;;4.50;4.30;;;;;;;;;;5053650;28;20819;-72
2023/12/01 01:50:26;;;;;;;4.87;4.67;;;;;;;;;;5053429;28;20780;-72
2023/12/01 01:52:55;;;;;;;4.40;4.07;;;;;;;;;;5052685;28;20430;-71
2023/12/01 01:55:21;;;;;;;11.40;4.77;;;;;;;;;;5053814;28;20792;-72
2023/12/01 01:57:48;;;;;;;4.87;4.53;;;;;;;;;;5053167;28;20473;-71
2023/12/01 02:00:18;;;;;;;5.17;4.77;;;;;;;;;;5053186;28;20418;-71
2023/12/01 02:02:46;;;;;;;4.77;4.37;;;;;;;;;;5052897;28;20523;-71
2023/12/01 02:05:15;;;;;;;4.70;4.47;;;;;;;;;;5053726;28;20407;-72
2023/12/01 02:07:41;;;;;;;5.37;5.07;;;;;;;;;;5053269;28;20419;-71
2023/12/01 02:10:15;;;;;;;4.77;4.47;;;;;;;;;;5053354;28;20453;-72
2023/12/01 02:12:41;;;;;;;6.73;5.27;;;;;;;;;;5051839;28;20501;-72
2023/12/01 02:15:10;;;;;;;5.50;5.30;;;;;;;;;;5053102;28;20479;-71
2023/12/01 02:17:37;;;;;;;5.23;4.70;;;;;;;;;;5052862;28;21030;-71
2023/12/01 02:20:05;;;;;;;3.53;3.43;;;;;;;;;;5051818;28;20509;-71
2023/12/01 02:22:31;;;;;;;4.80;4.50;;;;;;;;;;5053053;28;20423;-71
2023/12/01 02:24:57;;;;;;;4.60;4.37;;;;;;;;;;5053231;28;20426;-71
2023/12/01 02:27:23;;;;;;;5.67;5.07;;;;;;;;;;5053114;28;20922;-71
2023/12/01 02:29:49;;;;;;;5.00;4.70;;;;;;;;;;5053164;28;20410;-71
2023/12/01 02:32:15;;;;;;;5.60;5.30;;;;;;;;;;5053320;28;20933;-71
2023/12/01 02:34:45;;;;;;;5.03;4.83;;;;;;;;;;5052795;28;20449;-71
2023/12/01 02:37:11;;;;;;;6.57;5.67;;;;;;;;;;5053033;28;20481;-71
2023/12/01 02:39:37;;;;;;;5.10;4.90;;;;;;;;;;5052834;28;20414;-71
2023/12/01 02:42:03;;;;;;;5.27;4.97;;;;;;;;;;5053000;28;20426;-71
2023/12/01 02:44:29;;;;;;;5.83;5.43;;;;;;;;;;5052580;28;20442;-71
2023/12/01 02:46:55;;;;;;;4.60;4.40;;;;;;;;;;5052644;28;20461;-72
2023/12/01 02:49:24;;;;;;;6.00;5.50;;;;;;;;;;5053016;28;20437;-71
2023/12/01 02:51:50;;;;;;;5.27;4.97;;;;;;;;;;5052939;28;20422;-71
2023/12/01 02:54:16;;;;;;;6.10;5.63;;;;;;;;;;5053473;28;20461;-71
2023/12/01 02:56:42;;;;;;;5.40;5.10;;;;;;;;;;5053031;28;20637;-71
2023/12/01 02:59:08;;;;;;;5.70;5.40;;;;;;;;;;5052626;28;20509;-71
2023/12/01 03:01:33;;;;;;;4.70;4.50;;;;;;;;;;5053327;28;20410;-71
2023/12/01 03:03:59;;;;;;;5.70;5.37;;;;;;;;;;5052298;28;20470;-71
2023/12/01 03:06:25;;;;;;;6.10;5.30;;;;;;;;;;5056808;28;20428;-71
2023/12/01 03:08:51;;;;;;;6.00;5.33;;;;;;;;;;5056347;28;20458;-71
2023/12/01 03:11:22;;;;;;;4.90;4.60;;;;;;;;;;5056269;28;20426;-71
2023/12/01 03:13:48;;;;;;;4.87;4.57;;;;;;;;;;5056605;28;20413;-71
2023/12/01 03:16:13;;;;;;;5.33;5.03;;;;;;;;;;5056162;28;20418;-71
2023/12/01 03:18:40;;;;;;;5.67;5.17;;;;;;;;;;5056631;28;20513;-71
2023/12/01 03:21:12;;;;;;;4.63;4.43;;;;;;;;;;5056516;28;20410;-72
2023/12/01 03:23:39;;;;;;;4.80;4.47;;;;;;;;;;5056045;28;20468;-71
2023/12/01 03:26:05;;;;;;;4.30;4.00;;;;;;;;;;5056121;28;20906;-72
2023/12/01 03:28:31;;;;;;;4.10;3.90;;;;;;;;;;5056519;28;20426;-71
2023/12/01 03:30:57;;;;;;;5.07;4.77;;;;;;;;;;5056085;28;20464;-72
2023/12/01 03:33:23;;;;;;;4.03;3.93;;;;;;;;;;5056202;28;20464;-71
2023/12/01 03:35:49;;;;;;;4.33;4.13;;;;;;;;;;5056244;28;20414;-71
2023/12/01 03:38:15;;;;;;;4.97;4.47;;;;;;;;;;5055737;28;20570;-71
2023/12/01 03:40:41;;;;;;;4.20;3.90;;;;;;;;;;5056193;28;20417;-72
2023/12/01 03:43:07;;;;;;;4.10;4.00;;;;;;;;;;5054315;28;20430;-71
2023/12/01 03:45:33;;;;;;;6.00;5.43;;;;;;;;;;5056104;28;20636;-71
2023/12/01 03:47:59;;;;;;;4.73;4.57;;;;;;;;;;5055599;28;20902;-71
2023/12/01 03:50:25;;;;;;;5.23;4.83;;;;;;;;;;5055640;28;20502;-71
2023/12/01 03:52:51;;;;;;;5.17;4.77;;;;;;;;;;5055472;28;20421;-72
2023/12/01 03:55:17;;;;;;;4.80;4.50;;;;;;;;;;5055841;28;20778;-71
2023/12/01 03:57:44;;;;;;;4.10;4.00;;;;;;;;;;5055499;28;20565;-71
2023/12/01 04:00:13;;;;;;;4.77;4.40;;;;;;;;;;5055651;28;20421;-72
2023/12/01 04:02:46;;;;;;;4.90;4.60;;;;;;;;;;5053936;28;20521;-71
2023/12/01 04:05:20;;;;;;;4.37;4.17;;;;;;;;;;5055669;28;20415;-71
2023/12/01 04:07:46;;;;;;;8.90;8.20;;;;;;;;;;5055845;28;20920;-72
2023/12/01 04:10:13;;;;;;;4.03;3.93;;;;;;;;;;5055538;28;20423;-72
2023/12/01 04:12:39;;;;;;;4.00;3.70;;;;;;;;;;5055566;28;20750;-71
2023/12/01 04:15:05;;;;;;;3.20;3.10;;;;;;;;;;5055150;28;20965;-71
2023/12/01 04:17:32;;;;;;;3.60;3.40;;;;;;;;;;5054082;28;20991;-71
2023/12/01 04:19:58;;;;;;;3.37;3.30;;;;;;;;;;5055391;28;20417;-72
2023/12/01 04:22:25;;;;;;;3.50;3.27;;;;;;;;;;5055273;28;20410;-71
2023/12/01 04:24:51;;;;;;;3.33;3.23;;;;;;;;;;5055204;28;20414;-71
2023/12/01 04:27:17;;;;;;;3.10;3.10;;;;;;;;;;5055261;28;20415;-71
2023/12/01 04:32:48;;;;;;;4.13;4.03;;;;;;;;;;5055067;28;20398;-70
2023/12/01 04:35:15;;;;;;;3.67;3.57;;;;;;;;;;5053701;28;20415;-71
2023/12/01 04:37:41;;;;;;;4.43;4.23;;;;;;;;;;5054705;28;20470;-72
2023/12/01 04:40:14;;;;;;;4.10;3.80;;;;;;;;;;5055189;28;20997;-71
2023/12/01 04:42:40;;;;;;;4.73;4.53;;;;;;;;;;5054705;28;20897;-71
2023/12/01 04:45:11;;;;;;;5.20;4.40;;;;;;;;;;5054859;28;20506;-71
2023/12/01 04:47:37;;;;;;;4.10;3.93;;;;;;;;;;5054661;28;20774;-71
2023/12/01 04:50:05;;;;;;;4.47;4.27;;;;;;;;;;5054842;28;20909;-71
2023/12/01 04:52:38;;;;;;;4.00;3.90;;;;;;;;;;5054369;28;20410;-71
2023/12/01 04:55:04;;;;;;;5.60;5.10;;;;;;;;;;5054394;28;20416;-71
2023/12/01 04:57:30;;;;;;;4.57;4.37;;;;;;;;;;5054361;28;21030;-72
2023/12/01 04:59:56;;;;;;;7.40;4.40;;;;;;;;;;5054904;28;20407;-71
2023/12/01 05:02:23;;;;;;;4.90;4.67;;;;;;;;;;5052715;28;20462;-71
2023/12/01 05:04:50;;;;;;;5.00;4.60;;;;;;;;;;5054395;28;20449;-71
2023/12/01 05:07:16;;;;;;;4.30;4.20;;;;;;;;;;5054081;28;20457;-71
2023/12/01 05:09:42;;;;;;;3.70;3.60;;;;;;;;;;5054715;28;20450;-71
2023/12/01 05:12:08;;;;;;;4.70;4.60;;;;;;;;;;5054058;28;20431;-71
2023/12/01 05:14:34;;;;;;;4.23;4.13;;;;;;;;;;5054045;28;20415;-72
2023/12/01 05:17:00;;;;;;;4.30;3.93;;;;;;;;;;5053995;28;20481;-71
2023/12/01 05:19:27;;;;;;;5.33;5.13;;;;;;;;;;5054108;28;20418;-71
2023/12/01 05:21:53;;;;;;;4.40;4.30;;;;;;;;;;5053841;28;20785;-71
2023/12/01 05:24:19;;;;;;;5.20;4.90;;;;;;;;;;5053844;28;20506;-71
2023/12/01 05:26:45;;;;;;;6.60;4.50;;;;;;;;;;5054089;28;20422;-71
2023/12/01 05:29:13;;;;;;;4.20;3.97;;;;;;;;;;5053850;28;20446;-71
2023/12/01 05:31:39;;;;;;;4.03;3.90;;;;;;;;;;5053867;28;20418;-71
2023/12/01 05:34:05;;;;;;;4.27;4.17;;;;;;;;;;5053590;28;20917;-71
2023/12/01 05:36:32;;;;;;;4.50;4.30;;;;;;;;;;5054156;28;20461;-71
2023/12/01 05:38:58;;;;;;;10.73;3.73;;;;;;;;;;5053640;28;20423;-71
2023/12/01 05:41:24;;;;;;;3.97;3.87;;;;;;;;;;5053676;28;20421;-71
2023/12/01 05:43:50;;;;;;;5.30;5.00;;;;;;;;;;5053634;28;20476;-71
2023/12/01 05:46:16;;;;;;;4.23;4.03;;;;;;;;;;5053432;28;20445;-71
2023/12/01 05:48:42;;;;;;;4.50;4.30;;;;;;;;;;5053463;28;20418;-71
2023/12/01 05:51:08;;;;;;;4.47;4.17;;;;;;;;;;5053355;28;20501;-71
2023/12/01 05:53:34;;;;;;;3.77;3.60;;;;;;;;;;5053197;28;20423;-72
2023/12/01 05:56:03;;;;;;;4.13;3.90;;;;;;;;;;5053410;28;20437;-71
2023/12/01 05:58:29;;;;;;;4.10;3.90;;;;;;;;;;5053338;28;20474;-71
2023/12/01 06:00:56;;;;;;;4.20;3.90;;;;;;;;;;5053267;28;20898;-72
2023/12/01 06:03:22;;;;;;;4.13;4.03;;;;;;;;;;5051802;28;20480;-72
2023/12/01 06:05:48;;;;;;;4.43;4.10;;;;;;;;;;5053021;28;20415;-71
2023/12/01 06:08:15;;;;;;;7.17;6.60;;;;;;;;;;5053203;28;20443;-71
2023/12/01 06:10:41;;;;;;;5.10;4.80;;;;;;;;;;5053499;28;20497;-72
2023/12/01 06:13:07;;;;;;;5.33;4.90;;;;;;;;;;5053331;28;20954;-71
2023/12/01 06:15:33;;;;;;;4.57;4.30;;;;;;;;;;5053004;28;20407;-72
2023/12/01 06:18:02;;;;;;;11.90;8.43;;;;;;;;;;5052804;28;20493;-71
2023/12/01 06:20:30;;;;;;;7.43;6.73;;;;;;;;;;5052968;28;20784;-71
2023/12/01 06:23:00;;;;;;;6.83;6.23;;;;;;;;;;5053141;28;20472;-72
2023/12/01 06:25:27;;;;;;;6.50;5.90;;;;;;;;;;5053054;28;20449;-72
2023/12/01 06:27:56;;;;;;;5.07;4.73;;;;;;;;;;5053190;28;20513;-72
2023/12/01 06:30:22;;;;;;;4.47;4.27;;;;;;;;;;5053181;28;20418;-72
2023/12/01 06:32:48;;;;;;;4.63;4.33;;;;;;;;;;5052634;28;20413;-72
2023/12/01 06:35:15;;;;;;;4.60;4.30;;;;;;;;;;5052876;28;20407;-71
2023/12/01 06:37:41;;;;;;;4.67;4.40;;;;;;;;;;5052722;28;20462;-72
2023/12/01 06:40:11;;;;;;;3.70;3.50;;;;;;;;;;5054838;28;20410;-71
2023/12/01 06:42:39;;;;;;;4.27;3.97;;;;;;;;;;5056587;28;20416;-71
2023/12/01 06:45:05;;;;;;;4.10;3.90;;;;;;;;;;5057081;28;20417;-71
2023/12/01 06:47:32;;;;;;;3.90;3.73;;;;;;;;;;5056653;28;20483;-71
2023/12/01 06:49:58;;;;;;;4.10;3.90;;;;;;;;;;5056760;28;20413;-72
2023/12/01 06:52:24;;;;;;;6.20;3.50;;;;;;;;;;5056554;28;20452;-71
2023/12/01 06:54:50;;;;;;;3.00;3.00;;;;;;;;;;5056366;28;20406;-71
2023/12/01 06:57:16;;;;;;;6.20;3.73;;;;;;;;;;5056238;28;20512;-71
2023/12/01 06:59:42;;;;;;;4.07;3.87;;;;;;;;;;5056537;28;20441;-72
2023/12/01 07:02:08;;;;;;;4.00;3.90;;;;;;;;;;5056375;28;20417;-72
2023/12/01 07:04:34;;;;;;;3.27;3.20;;;;;;;;;;5056142;28;20501;-71
2023/12/01 07:07:03;;;;;;;49.37;23.10;;;;;;;;;;5056833;28;20422;-71
2023/12/01 07:09:30;;;;;;;20.07;14.50;;;;;;;;;;5056769;28;20487;-72
2023/12/01 07:11:58;;;;;;;13.60;11.47;;;;;;;;;;5056189;28;20430;-72
2023/12/01 07:14:24;;;;;;;7.50;6.90;;;;;;;;;;5055995;28;20907;-71
2023/12/01 07:16:50;;;;;;;4.40;4.27;;;;;;;;;;5055992;28;20589;-72
2023/12/01 07:19:16;;;;;;;4.20;4.10;;;;;;;;;;5056567;28;20449;-71
2023/12/01 07:21:45;;;;;;;4.70;4.50;;;;;;;;;;5056090;28;20517;-72
2023/12/01 07:24:11;;;;;;;4.90;4.60;;;;;;;;;;5055890;28;20895;-72
2023/12/01 07:26:37;;;;;;;5.83;5.33;;;;;;;;;;5056306;28;20419;-71
2023/12/01 07:32:07;;;;;;;4.30;4.20;;;;;;;;;;5055936;28;20942;-72
2023/12/01 07:34:33;;;;;;;5.07;4.77;;;;;;;;;;5055650;28;20407;-72
2023/12/01 07:36:59;;;;;;;4.33;4.23;;;;;;;;;;5055984;28;20469;-71
2023/12/01 07:42:28;;;;;;;5.20;4.80;;;;;;;;;;5055732;28;20745;-72
2023/12/01 07:44:54;;;;;;;5.47;4.97;;;;;;;;;;5055771;28;20411;-72
2023/12/01 07:47:20;;;;;;;5.40;5.00;;;;;;;;;;5055709;28;20845;-72
2023/12/01 07:52:50;;;;;;;6.10;5.60;;;;;;;;;;5054613;28;20429;-72
2023/12/01 07:55:17;;;;;;;8.80;5.50;;;;;;;;;;5055492;28;20441;-72
2023/12/01 07:57:43;;;;;;;6.10;5.60;;;;;;;;;;5055252;28;20473;-71
2023/12/01 08:00:16;;;;;;;5.77;5.23;;;;;;;;;;5055644;28;20410;-72
2023/12/01 08:02:42;;;;;;;5.10;4.90;;;;;;;;;;5055252;28;20473;-72
2023/12/01 08:05:14;;;;;;;3.70;3.60;;;;;;;;;;5055456;28;20407;-72
2023/12/01 08:07:44;;;;;;;4.47;4.27;;;;;;;;;;5055358;28;20418;-72
2023/12/01 08:10:14;;;;;;;5.27;4.87;;;;;;;;;;5055184;28;20895;-72
2023/12/01 08:12:40;;;;;;;4.10;3.90;;;;;;;;;;5054942;28;20387;-72
2023/12/01 08:15:07;;;;;;;4.50;4.30;;;;;;;;;;5055053;28;20421;-72
2023/12/01 08:17:33;;;;;;;3.83;3.67;;;;;;;;;;5054796;28;20831;-72
2023/12/01 08:19:58;;;;;;;4.57;4.10;;;;;;;;;;5055310;28;20921;-72
2023/12/01 08:22:24;;;;;;;4.10;3.80;;;;;;;;;;5055382;28;20926;-72
2023/12/01 08:24:50;;;;;;;4.00;3.90;;;;;;;;;;5056077;28;20952;-72
2023/12/01 08:27:17;;;;;;;4.23;4.13;;;;;;;;;;5055319;28;20739;-72
2023/12/01 08:29:43;;;;;;;4.07;3.97;;;;;;;;;;5055062;28;20419;-72
2023/12/01 08:32:09;;;;;;;5.10;4.90;;;;;;;;;;5054762;28;20481;-72
2023/12/01 08:34:35;;;;;;;4.47;4.23;;;;;;;;;;5055074;28;20411;-72
2023/12/01 08:37:01;;;;;;;3.70;3.60;;;;;;;;;;5054994;28;21057;-72
2023/12/01 08:39:30;;;;;;;5.07;3.93;;;;;;;;;;5055376;28;20898;-72
2023/12/01 08:41:56;;;;;;;4.53;4.37;;;;;;;;;;5054742;28;20445;-72
2023/12/01 08:44:22;;;;;;;4.00;3.90;;;;;;;;;;5054857;28;20411;-72
2023/12/01 08:46:48;;;;;;;3.67;3.57;;;;;;;;;;5054863;28;20502;-72
2023/12/01 08:49:14;;;;;;;4.10;3.80;;;;;;;;;;5054612;28;20815;-72
2023/12/01 08:51:40;;;;;;;3.57;3.40;;;;;;;;;;5054600;28;20407;-72
2023/12/01 08:54:06;;;;;;;3.40;3.10;;;;;;;;;;5053045;28;20465;-72
2023/12/01 08:56:32;;;;;;;3.30;3.20;;;;;;;;;;5055232;28;20422;-72
2023/12/01 08:58:58;;;;;;;3.77;3.67;;;;;;;;;;5054441;28;20468;-72
2023/12/01 09:01:24;;;;;;;3.40;3.30;;;;;;;;;;5054536;28;20417;-72
2023/12/01 09:03:50;;;;;;;4.43;4.03;;;;;;;;;;5053740;28;20466;-72
2023/12/01 09:06:16;;;;;;;4.40;4.17;;;;;;;;;;5054531;28;20430;-72
2023/12/01 09:08:42;;;;;;;2.93;2.90;;;;;;;;;;5054555;28;20426;-72
2023/12/01 09:11:08;;;;;;;3.17;3.17;;;;;;;;;;5054830;28;20459;-72
2023/12/01 09:13:34;;;;;;;3.57;3.47;;;;;;;;;;5053990;28;20422;-71
2023/12/01 09:16:00;;;;;;;3.83;3.73;;;;;;;;;;5054295;28;20418;-72
2023/12/01 09:18:29;;;;;;;4.60;4.20;;;;;;;;;;5053980;28;20470;-72
2023/12/01 09:20:55;;;;;;;3.93;3.83;;;;;;;;;;5054304;28;20433;-72
2023/12/01 09:23:21;;;;;;;4.60;4.30;;;;;;;;;;5053922;28;20433;-72
2023/12/01 09:25:48;;;;;;;4.93;4.53;;;;;;;;;;5053848;28;20418;-72
2023/12/01 09:28:14;;;;;;;5.53;5.13;;;;;;;;;;5053908;28;20910;-72
2023/12/01 09:30:40;;;;;;;6.83;6.13;;;;;;;;;;5052563;28;20831;-72
2023/12/01 09:33:06;;;;;;;4.50;4.30;;;;;;;;;;5053964;28;20415;-72
2023/12/01 09:35:33;;;;;;;3.97;3.70;;;;;;;;;;5054068;28;20427;-72
2023/12/01 09:37:59;;;;;;;4.77;4.30;;;;;;;;;;5053858;28;20470;-72
2023/12/01 09:40:25;;;;;;;4.17;4.00;;;;;;;;;;5053672;28;20822;-72
2023/12/01 09:42:51;;;;;;;4.63;4.43;;;;;;;;;;5053841;28;20426;-72
2023/12/01 09:45:20;;;;;;;5.23;4.93;;;;;;;;;;5054111;28;20460;-72
2023/12/01 09:47:49;;;;;;;4.90;4.70;;;;;;;;;;5053785;28;20449;-72
2023/12/01 09:50:15;;;;;;;4.73;4.60;;;;;;;;;;5053524;28;20959;-72
2023/12/01 09:52:42;;;;;;;5.80;5.43;;;;;;;;;;5053621;28;20411;-72
2023/12/01 09:55:08;;;;;;;5.30;5.10;;;;;;;;;;5054216;28;20413;-72
2023/12/01 09:57:34;;;;;;;5.77;5.57;;;;;;;;;;5053607;28;20512;-72
2023/12/01 10:00:00;;;;;;;4.60;4.50;;;;;;;;;;5053391;28;20501;-72
2023/12/01 10:02:27;;;;;;;5.73;5.33;;;;;;;;;;5053343;28;20860;-72
2023/12/01 10:05:01;;;;;;;5.17;4.97;;;;;;;;;;5053546;28;20763;-72
2023/12/01 10:07:27;;;;;;;5.50;5.30;;;;;;;;;;5053507;28;20530;-75
2023/12/01 10:09:53;;;;;;;5.73;5.10;;;;;;;;;;5053453;28;20462;-74
2023/12/01 10:12:18;;;;;;;4.83;4.60;;;;;;;;;;5053162;28;20426;-74
2023/12/01 10:14:45;;;;;;;6.23;5.77;;;;;;;;;;5052229;28;20417;-74
2023/12/01 10:17:14;;;;;;;6.43;5.83;;;;;;;;;;5053088;28;20938;-72
2023/12/01 10:22:44;;;;;;;6.23;5.83;;;;;;;;;;5052910;28;20966;-72
2023/12/01 10:25:12;;;;;;;6.70;6.10;;;;;;;;;;5053088;28;20514;-71
2023/12/01 10:27:38;;;;;;;6.27;5.87;;;;;;;;;;5053188;28;20484;-72
2023/12/01 10:30:11;;;;;;;5.97;5.67;;;;;;;;;;5052646;28;20418;-72
2023/12/01 10:32:37;;;;;;;8.40;7.53;;;;;;;;;;5052660;28;20468;-72
2023/12/01 10:35:05;;;;;;;8.37;7.57;;;;;;;;;;5052714;28;20422;-71
2023/12/01 10:37:31;;;;;;;7.27;6.67;;;;;;;;;;5052977;28;20478;-72
2023/12/01 10:39:57;;;;;;;7.30;6.70;;;;;;;;;;5052670;28;20414;-72
2023/12/01 10:42:24;;;;;;;7.80;7.10;;;;;;;;;;5052678;28;20423;-72
2023/12/01 10:44:50;;;;;;;8.20;7.40;;;;;;;;;;5053000;28;20407;-72
2023/12/01 10:47:17;;;;;;;7.13;6.63;;;;;;;;;;5052658;28;20505;-72
2023/12/01 10:49:44;;;;;;;8.57;7.77;;;;;;;;;;5052759;28;20414;-74
2023/12/01 10:52:12;;;;;;;7.20;6.63;;;;;;;;;;5052612;28;20505;-72
2023/12/01 10:54:42;;;;;;;7.37;6.70;;;;;;;;;;5052850;28;20426;-72
2023/12/01 10:57:16;;;;;;;10.90;9.80;;;;;;;;;;5053056;28;20776;-72
2023/12/01 11:02:46;;;;;;;10.90;9.73;;;;;;;;;;5052351;28;21026;-72
2023/12/01 11:05:12;;;;;;;8.43;7.53;;;;;;;;;;5053020;28;20892;-72
2023/12/01 11:07:37;;;;;;;7.23;6.80;;;;;;;;;;5051069;28;20427;-72
2023/12/01 11:10:07;;;;;;;7.70;7.00;;;;;;;;;;5052426;28;20421;-73
2023/12/01 11:12:51;;;;;;;7.87;7.20;;;;;;;;;;5052390;28;20524;-72
2023/12/01 11:15:23;;;;;;;7.47;6.93;;;;;;;;;;5053034;28;20934;-72
2023/12/01 11:17:50;;;;;;;8.00;7.50;;;;;;;;;;5052575;28;20478;-72
2023/12/01 11:20:32;;;;;;;8.37;7.67;;;;;;;;;;5052729;28;20418;-72
2023/12/01 11:23:18;;;;;;;9.43;8.67;;;;;;;;;;5052622;28;20454;-72
2023/12/01 11:25:48;;;;;;;12.37;11.17;;;;;;;;;;5049550;28;20432;-72
2023/12/01 11:28:25;;;;;;;17.50;14.37;;;;;;;;;;5056117;28;20410;-72
2023/12/01 11:31:08;;;;;;;12.27;10.97;;;;;;;;;;5056426;28;20490;-72
2023/12/01 11:33:37;;;;;;;10.47;9.23;;;;;;;;;;5056237;28;20537;-73
2023/12/01 11:36:22;;;;;;;9.60;8.43;;;;;;;;;;5056279;28;20414;-73
2023/12/01 11:41:55;;;;;;;10.83;9.70;;;;;;;;;;5055766;28;20493;-72
2023/12/01 11:44:26;;;;;;;12.20;11.00;;;;;;;;;;5056196;28;20434;-72
2023/12/01 11:46:56;;;;;;;11.33;10.23;;;;;;;;;;5055736;28;20941;-72
2023/12/01 11:49:32;;;;;;;14.10;10.53;;;;;;;;;;5055742;28;20442;-72
2023/12/01 11:51:58;;;;;;;12.23;10.93;;;;;;;;;;5055552;28;20500;-72
2023/12/01 11:54:24;;;;;;;13.33;11.87;;;;;;;;;;5055701;28;20421;-72
2023/12/01 11:56:51;;;;;;;16.37;12.27;;;;;;;;;;5055808;28;20486;-72
2023/12/01 11:59:17;;;;;;;15.97;12.07;;;;;;;;;;5055477;28;20980;-72
2023/12/01 12:01:44;;;;;;;19.57;14.87;;;;;;;;;;5055659;28;20962;-72
2023/12/01 12:04:13;;;;;;;22.97;14.90;;;;;;;;;;5055191;28;20564;-72
2023/12/01 12:06:41;;;;;;;20.10;14.80;;;;;;;;;;5055319;28;20513;-72
2023/12/01 12:09:08;;;;;;;20.03;13.67;;;;;;;;;;5055517;28;20418;-72
2023/12/01 12:11:39;;;;;;;17.73;13.50;;;;;;;;;;5055582;28;20556;-72
2023/12/01 12:14:05;;;;;;;20.90;15.70;;;;;;;;;;5053052;28;20416;-72
2023/12/01 12:16:31;;;;;;;16.93;13.33;;;;;;;;;;5055007;28;20230;-73
2023/12/01 12:18:58;;;;;;;22.60;13.43;;;;;;;;;;5053865;28;20431;-73
2023/12/01 12:21:24;;;;;;;25.60;14.67;;;;;;;;;;5055597;28;20429;-73
2023/12/01 12:23:50;;;;;;;13.70;10.40;;;;;;;;;;5055628;28;20504;-72
2023/12/01 12:26:20;;;;;;;16.20;12.37;;;;;;;;;;5054939;28;20430;-72
2023/12/01 12:29:05;;;;;;;21.40;14.27;;;;;;;;;;5054837;28;20902;-72
2023/12/01 12:31:31;;;;;;;18.20;13.23;;;;;;;;;;5054857;28;20902;-72
2023/12/01 12:33:59;;;;;;;22.57;14.83;;;;;;;;;;5054907;28;20421;-72
2023/12/01 12:36:28;;;;;;;20.37;14.77;;;;;;;;;;5054647;28;20426;-72
2023/12/01 12:41:59;;;;;;;15.70;12.27;;;;;;;;;;5054816;28;20389;-72
2023/12/01 12:44:26;;;;;;;21.03;15.17;;;;;;;;;;5054740;28;20422;-73
2023/12/01 12:47:00;;;;;;;17.93;13.40;;;;;;;;;;5053627;28;20476;-73
2023/12/01 12:49:26;;;;;;;21.13;14.20;;;;;;;;;;5054846;28;20835;-73
2023/12/01 12:51:52;;;;;;;20.43;15.43;;;;;;;;;;5054852;28;20411;-73
2023/12/01 12:54:18;;;;;;;19.27;13.87;;;;;;;;;;5054720;28;20506;-72
2023/12/01 12:56:45;;;;;;;22.60;15.33;;;;;;;;;;5054671;28;20446;-72
2023/12/01 12:59:11;;;;;;;22.13;16.17;;;;;;;;;;5054924;28;20959;-72
2023/12/01 13:01:37;;;;;;;19.60;14.87;;;;;;;;;;5054018;28;20929;-72
2023/12/01 13:04:03;;;;;;;22.70;15.70;;;;;;;;;;5054145;28;20540;-71
2023/12/01 13:06:29;;;;;;;25.60;16.53;;;;;;;;;;5054193;28;20427;-73
2023/12/01 13:08:55;;;;;;;23.27;14.90;;;;;;;;;;5054479;28;20476;-72
2023/12/01 13:11:21;;;;;;;21.60;14.67;;;;;;;;;;5054399;28;20515;-71
2023/12/01 13:13:47;;;;;;;21.20;15.63;;;;;;;;;;5054223;28;20468;-73
2023/12/01 13:16:13;;;;;;;18.73;13.80;;;;;;;;;;5054211;28;20959;-72
2023/12/01 13:18:40;;;;;;;19.00;12.80;;;;;;;;;;5053858;28;20477;-71
2023/12/01 13:21:06;;;;;;;17.67;14.00;;;;;;;;;;5054065;28;20792;-72
2023/12/01 13:23:32;;;;;;;33.70;18.00;;;;;;;;;;5053693;28;20821;-71
2023/12/01 13:25:58;;;;;;;37.60;20.73;;;;;;;;;;5053671;28;20461;-69
2023/12/01 13:28:25;;;;;;;24.40;15.53;;;;;;;;;;5054155;28;20418;-72
2023/12/01 13:30:52;;;;;;;19.97;14.60;;;;;;;;;;5053609;28;20476;-71
2023/12/01 13:33:18;;;;;;;16.43;13.17;;;;;;;;;;5053589;28;20422;-70
2023/12/01 13:35:44;;;;;;;13.50;12.07;;;;;;;;;;5053605;28;20468;-71
2023/12/01 13:38:11;;;;;;;24.90;17.10;;;;;;;;;;5053880;28;20478;-71
2023/12/01 13:40:38;;;;;;;18.47;13.60;;;;;;;;;;5053774;28;20411;-72
2023/12/01 13:43:06;;;;;;;18.63;13.70;;;;;;;;;;5054004;28;20862;-71
2023/12/01 13:45:33;;;;;;;20.87;15.03;;;;;;;;;;5053770;28;20748;-72
2023/12/01 13:47:58;;;;;;;14.37;12.53;;;;;;;;;;5053510;28;20406;-72
2023/12/01 13:50:24;;;;;;;19.90;14.57;;;;;;;;;;5053395;28;20464;-71
2023/12/01 13:52:50;;;;;;;20.10;13.40;;;;;;;;;;5053258;28;20407;-71
2023/12/01 13:55:17;;;;;;;22.53;14.33;;;;;;;;;;5053375;28;20490;-71
2023/12/01 13:57:44;;;;;;;22.23;15.07;;;;;;;;;;5053285;28;20514;-70
2023/12/01 14:00:12;;;;;;;19.40;12.63;;;;;;;;;;5053464;28;20411;-72
2023/12/01 14:02:38;;;;;;;21.13;15.33;;;;;;;;;;5052805;28;20422;-71
2023/12/01 14:05:05;;;;;;;23.80;15.87;;;;;;;;;;5053552;28;20403;-71
2023/12/01 14:07:31;;;;;;;24.47;17.27;;;;;;;;;;5053318;28;20415;-72
2023/12/01 14:09:57;;;;;;;18.63;13.43;;;;;;;;;;5053339;28;20497;-72
2023/12/01 14:12:23;;;;;;;18.97;13.20;;;;;;;;;;5053439;28;20911;-72
2023/12/01 14:14:49;;;;;;;20.30;14.23;;;;;;;;;;5053293;28;20415;-71
2023/12/01 14:17:15;;;;;;;17.20;13.40;;;;;;;;;;5052979;28;20884;-72
2023/12/01 14:19:42;;;;;;;20.90;14.40;;;;;;;;;;5053342;28;20414;-71
2023/12/01 14:22:08;;;;;;;20.50;14.83;;;;;;;;;;5035117;28;20969;-71
2023/12/01 14:24:34;;;;;;;18.83;13.77;;;;;;;;;;5051437;28;20418;-71
2023/12/01 14:27:00;;;;;;;23.20;16.00;;;;;;;;;;5052923;28;20419;-71
2023/12/01 14:29:27;;;;;;;25.80;15.57;;;;;;;;;;5052991;28;20418;-71
2023/12/01 14:31:53;;;;;;;19.43;14.53;;;;;;;;;;5052659;28;20406;-71
2023/12/01 14:34:19;;;;;;;25.30;16.00;;;;;;;;;;5052583;28;20410;-71
2023/12/01 14:36:45;;;;;;;28.93;15.83;;;;;;;;;;5052494;28;20506;-71
2023/12/01 14:39:11;;;;;;;17.00;12.77;;;;;;;;;;5052706;28;20418;-72
2023/12/01 14:41:38;;;;;;;20.17;14.00;;;;;;;;;;5053073;28;20410;-72
2023/12/01 14:44:04;;;;;;;17.33;12.43;;;;;;;;;;5052686;28;20489;-72
2023/12/01 14:46:30;;;;;;;14.43;11.27;;;;;;;;;;5052735;28;20454;-72
2023/12/01 14:48:56;;;;;;;13.33;11.00;;;;;;;;;;5053032;28;20434;-72
2023/12/01 14:51:22;;;;;;;19.37;14.00;;;;;;;;;;5052744;28;20451;-73
2023/12/01 14:53:48;;;;;;;15.47;11.67;;;;;;;;;;5052877;28;20497;-72
2023/12/01 14:56:14;;;;;;;13.60;11.73;;;;;;;;;;5053021;28;20422;-72
2023/12/01 15:01:43;;;;;;;13.63;12.20;;;;;;;;;;5055432;28;20460;-71
2023/12/01 15:04:09;;;;;;;13.23;10.93;;;;;;;;;;5056243;28;20465;-72